Point Leamington, Canada
Current Conditions -  °F | °C
As of 1:00 PM on Thursday 23 Oct 2014 (Local Time) from CYQX Reporting Station
Broken Clouds Broken Clouds  
Wind Chill: 50°   Ceiling: 26000
Heat Index: 50°   Visibility: 20mi
Dew Point: 37°   Wind: 5mph
Humidity: 62%   Direction: 210°SSW
Pressure: 30.34"   Gusts: NA
Location:  49.32°N, 55.4°W
Report Text: CYQX 231500Z 21004KT 160V260 20SM BKN260 10/03 A3034 RMK CI7 CU/AC TR SLP279
Loading
Personal Weather Stations






























Interactive Weather Map
Tropical Storm Tracking
New forecast layout! Learn more

10-Day Weather Forecast

Advertisements
Track Severe Weather on mobile